Time;durP1;ratioP1;P1;durP2;ratioP2;P2;SDS_P1;SDS_P2;PMS_P1;PMS_P2;Temp;Humidity;BMP_temperature;BMP_pressure;BME280_temperature;BME280_humidity;BME280_pressure;Samples;Min_cycle;Max_cycle;Signal;HPM_P1;HPM_P2
2021/11/23 00:00:55;;;;;;;12.00;5.00;;;13.70;99.90;;;;;;5057567;28;20203;-65
2021/11/23 00:03:22;;;;;;;6.60;4.47;;;13.70;99.90;;;;;;5059868;28;20271;-65
2021/11/23 00:05:49;;;;;;;7.70;4.20;;;13.70;99.90;;;;;;5048294;28;20311;-65
2021/11/23 00:08:18;;;;;;;10.10;4.70;;;13.70;99.90;;;;;;5050996;28;20945;-65
2021/11/23 00:10:46;;;;;;;8.53;4.73;;;13.70;99.90;;;;;;5046707;28;20241;-65
2021/11/23 00:13:15;;;;;;;6.70;4.33;;;13.60;99.90;;;;;;5052876;28;20187;-64
2021/11/23 00:15:42;;;;;;;6.90;4.90;;;13.60;99.90;;;;;;5052847;28;20340;-65
2021/11/23 00:18:12;;;;;;;9.77;4.50;;;13.60;99.90;;;;;;5050324;28;20191;-65
2021/11/23 00:20:43;;;;;;;8.43;4.50;;;13.50;99.90;;;;;;5049905;28;20199;-65
2021/11/23 00:23:11;;;;;;;7.90;4.50;;;13.60;99.90;;;;;;5053247;28;20211;-65
2021/11/23 00:25:38;;;;;;;8.97;4.40;;;13.60;99.90;;;;;;5060755;28;20229;-65
2021/11/23 00:28:04;;;;;;;8.07;4.57;;;13.60;99.90;;;;;;5052006;28;20223;-65
2021/11/23 00:30:31;;;;;;;9.97;5.03;;;13.60;99.90;;;;;;5052965;28;20191;-65
2021/11/23 00:32:58;;;;;;;8.10;4.10;;;13.60;99.90;;;;;;5053981;28;20304;-65
2021/11/23 00:35:26;;;;;;;7.90;4.10;;;13.60;99.90;;;;;;5052301;28;21068;-65
2021/11/23 00:37:52;;;;;;;10.47;4.70;;;13.60;99.90;;;;;;5050457;28;20206;-65
2021/11/23 00:40:21;;;;;;;7.60;4.87;;;13.70;99.90;;;;;;5043048;28;20195;-63
2021/11/23 00:42:48;;;;;;;8.77;4.97;;;13.70;99.90;;;;;;5062125;28;21028;-64
2021/11/23 00:45:15;;;;;;;7.93;4.77;;;13.70;99.90;;;;;;5049881;28;20198;-64
2021/11/23 00:47:42;;;;;;;8.20;4.67;;;13.70;99.90;;;;;;5050210;28;20350;-63
2021/11/23 00:50:10;;;;;;;8.07;4.60;;;13.80;99.90;;;;;;5050182;28;20187;-63
2021/11/23 00:52:38;;;;;;;5.93;4.23;;;13.80;99.90;;;;;;5053770;28;20200;-66
2021/11/23 00:55:06;;;;;;;13.67;5.13;;;13.70;99.90;;;;;;5049924;28;20202;-66
2021/11/23 00:57:34;;;;;;;7.67;4.60;;;13.70;99.90;;;;;;5052208;28;20210;-67
2021/11/23 01:00:00;;;;;;;9.83;4.93;;;13.70;99.90;;;;;;5053918;28;20721;-66
2021/11/23 01:02:26;;;;;;;7.43;4.93;;;13.70;99.90;;;;;;5048703;28;20286;-66
2021/11/23 01:04:53;;;;;;;9.43;4.97;;;13.70;99.90;;;;;;5050411;28;20294;-66
2021/11/23 01:07:19;;;;;;;10.67;5.40;;;13.70;99.90;;;;;;5049234;28;20223;-66
2021/11/23 01:09:45;;;;;;;8.50;5.23;;;13.80;99.90;;;;;;5052737;28;20197;-66
2021/11/23 01:12:12;;;;;;;9.43;5.13;;;13.80;99.90;;;;;;5051109;28;20192;-66
2021/11/23 01:14:39;;;;;;;9.73;5.27;;;13.80;99.90;;;;;;5050992;28;20615;-67
2021/11/23 01:17:05;;;;;;;8.70;4.73;;;13.80;99.90;;;;;;5052145;28;20226;-66
2021/11/23 01:19:32;;;;;;;6.10;4.40;;;13.80;99.90;;;;;;5058723;28;20832;-66
2021/11/23 01:21:58;;;;;;;9.70;4.87;;;13.80;99.90;;;;;;5049612;28;20192;-65
2021/11/23 01:24:24;;;;;;;14.57;4.97;;;13.80;99.90;;;;;;5049545;28;20797;-66
2021/11/23 01:26:51;;;;;;;12.37;5.57;;;13.70;99.90;;;;;;5052610;28;20223;-66
2021/11/23 01:29:17;;;;;;;8.50;4.97;;;13.70;99.90;;;;;;5052111;28;20198;-65
2021/11/23 01:31:43;;;;;;;7.37;5.00;;;13.80;99.90;;;;;;5052695;28;20199;-65
2021/11/23 01:34:10;;;;;;;9.70;4.93;;;13.70;99.90;;;;;;5052049;28;20183;-65
2021/11/23 01:36:36;;;;;;;7.63;4.80;;;13.70;99.90;;;;;;5051304;28;20221;-66
2021/11/23 01:39:03;;;;;;;9.07;4.53;;;13.80;99.90;;;;;;5051192;28;20238;-67
2021/11/23 01:41:30;;;;;;;8.80;5.07;;;13.70;99.90;;;;;;5049276;28;20243;-67
2021/11/23 01:43:56;;;;;;;8.57;4.67;;;13.70;99.90;;;;;;5053883;28;20193;-67
2021/11/23 01:46:22;;;;;;;9.37;4.50;;;13.70;99.90;;;;;;5069793;28;20655;-67
2021/11/23 01:48:48;;;;;;;12.10;4.90;;;13.70;99.90;;;;;;5059485;28;20223;-67
2021/11/23 01:51:15;;;;;;;8.73;5.00;;;13.70;99.90;;;;;;5051517;28;20610;-67
2021/11/23 01:53:42;;;;;;;7.67;5.07;;;13.70;99.90;;;;;;5059620;28;20194;-67
2021/11/23 01:56:08;;;;;;;8.93;4.90;;;13.70;99.90;;;;;;5050560;28;20194;-64
2021/11/23 01:58:35;;;;;;;9.60;4.97;;;13.70;99.90;;;;;;5051458;28;20198;-65
2021/11/23 02:01:06;;;;;;;12.33;5.13;;;13.70;99.90;;;;;;5047857;28;20214;-64
2021/11/23 02:03:34;;;;;;;10.20;5.77;;;13.70;99.90;;;;;;5052733;28;20471;-63
2021/11/23 02:06:01;;;;;;;7.23;4.70;;;13.70;99.90;;;;;;5049442;28;20808;-65
2021/11/23 02:08:27;;;;;;;10.93;5.40;;;13.70;99.90;;;;;;5049570;28;20334;-65
2021/11/23 02:10:54;;;;;;;8.77;5.10;;;13.70;99.90;;;;;;5040278;28;20202;-64
2021/11/23 02:13:22;;;;;;;8.13;5.53;;;13.70;99.90;;;;;;5035459;28;20190;-65
2021/11/23 02:15:50;;;;;;;7.20;5.30;;;13.70;99.90;;;;;;5049647;28;20179;-65
2021/11/23 02:18:23;;;;;;;9.77;5.70;;;13.80;99.90;;;;;;5050482;28;20241;-65
2021/11/23 02:20:51;;;;;;;8.83;5.17;;;13.80;99.90;;;;;;5050104;28;20206;-65
2021/11/23 02:23:18;;;;;;;8.27;5.00;;;13.80;99.90;;;;;;5049968;28;20254;-65
2021/11/23 02:25:47;;;;;;;8.53;5.17;;;13.80;99.90;;;;;;5048579;28;20228;-65
2021/11/23 02:28:14;;;;;;;10.80;5.10;;;13.80;99.90;;;;;;5048189;28;20226;-65
2021/11/23 02:30:50;;;;;;;14.93;5.73;;;13.80;99.90;;;;;;5056350;28;20202;-66
2021/11/23 02:33:20;;;;;;;10.27;5.73;;;13.80;99.90;;;;;;5057893;28;20203;-64
2021/11/23 02:35:49;;;;;;;7.00;5.03;;;13.80;99.90;;;;;;5047730;28;20203;-64
2021/11/23 02:38:22;;;;;;;9.33;4.70;;;13.80;99.90;;;;;;5048319;28;20647;-63
2021/11/23 02:40:50;;;;;;;16.07;6.10;;;13.80;99.90;;;;;;5032207;28;20632;-63
2021/11/23 02:43:17;;;;;;;8.80;5.10;;;13.80;99.90;;;;;;5050237;28;20195;-63
2021/11/23 02:45:44;;;;;;;13.00;5.57;;;13.80;99.90;;;;;;5050596;28;20199;-63
2021/11/23 02:48:13;;;;;;;8.53;5.20;;;13.70;99.90;;;;;;5050285;28;20219;-63
2021/11/23 02:51:07;;;;;;;12.50;5.50;;;13.70;99.90;;;;;;5047645;28;20183;-63
2021/11/23 02:53:29;;;;;;;13.63;5.90;;;13.70;99.90;;;;;;5050527;28;20683;-64
2021/11/23 02:55:56;;;;;;;9.57;5.63;;;13.60;99.90;;;;;;5055310;28;20191;-64
2021/11/23 02:58:22;;;;;;;7.00;5.13;;;13.60;99.90;;;;;;5051056;28;20199;-63
2021/11/23 03:00:49;;;;;;;10.13;5.27;;;13.60;99.90;;;;;;5050219;28;20264;-62
2021/11/23 03:03:16;;;;;;;9.50;5.00;;;13.60;99.90;;;;;;5049799;28;20281;-63
2021/11/23 03:05:43;;;;;;;9.97;5.17;;;13.70;99.90;;;;;;5048608;28;20294;-63
2021/11/23 03:08:09;;;;;;;12.17;5.87;;;13.70;99.90;;;;;;5047179;28;20240;-65
2021/11/23 03:10:36;;;;;;;11.27;5.60;;;13.70;99.90;;;;;;5046495;28;20201;-65
2021/11/23 03:13:02;;;;;;;12.93;5.30;;;13.70;99.90;;;;;;5049410;28;20786;-66
2021/11/23 03:15:30;;;;;;;10.00;5.70;;;13.60;99.90;;;;;;5050790;28;20252;-66
2021/11/23 03:17:58;;;;;;;10.17;5.50;;;13.70;99.90;;;;;;5056109;28;20195;-66
2021/11/23 03:20:25;;;;;;;7.67;5.30;;;13.70;99.90;;;;;;5049907;28;20285;-66
2021/11/23 03:22:54;;;;;;;7.23;5.33;;;13.70;99.90;;;;;;5049678;28;20215;-65
2021/11/23 03:25:21;;;;;;;10.83;5.57;;;13.70;99.90;;;;;;5047755;28;20248;-64
2021/11/23 03:27:48;;;;;;;12.63;5.53;;;13.70;99.90;;;;;;5065709;28;20214;-63
2021/11/23 03:30:23;;;;;;;12.13;5.07;;;13.70;99.90;;;;;;5056271;28;20234;-65
2021/11/23 03:32:50;;;;;;;8.90;5.33;;;13.70;99.90;;;;;;5050183;28;20194;-65
2021/11/23 03:35:18;;;;;;;8.33;5.40;;;13.60;99.90;;;;;;5032172;28;20317;-64
2021/11/23 03:37:45;;;;;;;10.17;5.70;;;13.60;99.90;;;;;;5045121;28;20704;-65
2021/11/23 03:40:12;;;;;;;7.43;5.50;;;13.60;99.90;;;;;;5045619;28;20333;-65
2021/11/23 03:42:38;;;;;;;10.37;5.33;;;13.60;99.90;;;;;;5033827;28;20639;-65
2021/11/23 03:45:06;;;;;;;7.97;5.50;;;13.60;99.90;;;;;;5049157;28;20198;-65
2021/11/23 03:47:34;;;;;;;9.40;5.20;;;13.60;99.90;;;;;;5046427;28;20219;-65
2021/11/23 03:50:01;;;;;;;7.40;5.70;;;13.60;99.90;;;;;;5052629;28;20278;-65
2021/11/23 03:52:28;;;;;;;7.17;5.60;;;13.60;99.90;;;;;;5052753;28;20223;-66
2021/11/23 03:54:54;;;;;;;9.00;5.40;;;13.50;99.90;;;;;;5051283;28;20306;-65
2021/11/23 03:57:22;;;;;;;12.60;5.07;;;13.50;99.90;;;;;;5051635;28;20632;-65
2021/11/23 03:59:48;;;;;;;9.23;5.60;;;13.50;99.90;;;;;;5053372;28;20191;-65
2021/11/23 04:02:23;;;;;;;7.23;5.43;;;13.50;99.90;;;;;;5060392;28;20203;-65
2021/11/23 04:04:51;;;;;;;13.47;5.80;;;13.50;99.90;;;;;;5060431;28;20693;-66
2021/11/23 04:07:17;;;;;;;12.47;6.00;;;13.50;99.90;;;;;;5058208;28;20242;-64
2021/11/23 04:09:43;;;;;;;9.63;5.60;;;13.50;99.90;;;;;;5053905;28;20623;-66
2021/11/23 04:12:12;;;;;;;10.93;5.00;;;13.50;99.90;;;;;;5053714;28;20186;-65
2021/11/23 04:14:43;;;;;;;8.83;5.50;;;13.60;99.90;;;;;;5051617;28;20205;-65
2021/11/23 04:17:10;;;;;;;8.80;5.63;;;13.60;99.90;;;;;;5049790;28;20187;-65
2021/11/23 04:19:37;;;;;;;13.47;5.57;;;13.60;99.90;;;;;;5052033;28;20294;-64
2021/11/23 04:22:06;;;;;;;14.90;5.90;;;13.60;99.90;;;;;;5050771;28;20182;-65
2021/11/23 04:24:33;;;;;;;11.23;5.33;;;13.70;99.90;;;;;;5070159;28;20191;-64
2021/11/23 04:26:59;;;;;;;9.73;5.70;;;13.70;99.90;;;;;;5050720;28;20265;-65
2021/11/23 04:29:26;;;;;;;10.43;5.23;;;13.70;99.90;;;;;;5051793;28;20226;-64
2021/11/23 04:31:53;;;;;;;12.27;5.40;;;13.70;99.90;;;;;;5051448;28;20541;-64
2021/11/23 04:34:20;;;;;;;8.53;5.50;;;13.70;99.90;;;;;;5051248;28;20202;-64
2021/11/23 04:36:47;;;;;;;10.67;5.57;;;13.70;99.90;;;;;;5051951;28;20286;-65
2021/11/23 04:39:13;;;;;;;11.00;6.10;;;13.70;99.90;;;;;;5053016;28;21710;-64
2021/11/23 04:41:41;;;;;;;10.50;5.43;;;13.70;99.90;;;;;;5052242;28;20688;-64
2021/11/23 04:44:08;;;;;;;10.13;5.53;;;13.80;99.90;;;;;;5051552;28;20208;-64
2021/11/23 04:46:35;;;;;;;10.80;5.07;;;13.70;99.90;;;;;;5052210;28;20223;-65
2021/11/23 04:49:02;;;;;;;7.50;5.40;;;13.80;99.90;;;;;;5052517;28;20190;-65
2021/11/23 04:51:28;;;;;;;10.63;5.40;;;13.80;99.90;;;;;;5059390;28;20665;-64
2021/11/23 04:53:55;;;;;;;7.67;4.93;;;13.70;99.90;;;;;;5049199;28;20207;-63
2021/11/23 04:56:21;;;;;;;7.00;5.13;;;13.70;99.90;;;;;;5050958;28;20195;-66
2021/11/23 04:58:47;;;;;;;10.43;5.83;;;13.70;99.90;;;;;;5053777;28;20199;-66
2021/11/23 05:01:14;;;;;;;9.20;5.60;;;13.70;99.90;;;;;;5059098;28;20261;-66
2021/11/23 05:03:41;;;;;;;11.00;6.17;;;13.70;99.90;;;;;;5059544;28;20183;-64
2021/11/23 05:06:07;;;;;;;10.43;6.47;;;13.70;99.90;;;;;;5058471;28;20200;-64
2021/11/23 05:08:33;;;;;;;7.67;5.67;;;13.80;99.90;;;;;;5051580;28;20222;-63
2021/11/23 05:11:01;;;;;;;11.10;6.03;;;13.80;99.90;;;;;;5069861;28;20183;-64
2021/11/23 05:13:27;;;;;;;7.33;5.07;;;13.80;99.90;;;;;;5055764;28;20189;-65
2021/11/23 05:15:53;;;;;;;10.63;5.50;;;13.90;99.90;;;;;;5058408;28;20202;-64
2021/11/23 05:18:19;;;;;;;11.57;5.73;;;13.90;99.90;;;;;;5053097;28;20202;-65
2021/11/23 05:20:46;;;;;;;7.13;4.97;;;13.90;99.90;;;;;;5051397;28;20686;-64
2021/11/23 05:23:12;;;;;;;7.07;5.53;;;13.90;99.90;;;;;;5049816;28;20623;-65
2021/11/23 05:25:38;;;;;;;9.50;5.53;;;13.90;99.90;;;;;;5050166;28;20191;-64
2021/11/23 05:28:04;;;;;;;8.97;5.53;;;13.90;99.90;;;;;;5051939;28;20248;-64
2021/11/23 05:30:31;;;;;;;7.13;5.77;;;14.00;99.90;;;;;;5059464;28;20686;-64
2021/11/23 05:32:57;;;;;;;9.57;5.30;;;14.00;99.90;;;;;;5051093;28;20191;-65
2021/11/23 05:35:23;;;;;;;10.93;5.80;;;14.00;99.90;;;;;;5053161;28;20234;-64
2021/11/23 05:37:49;;;;;;;11.87;5.70;;;14.00;99.90;;;;;;5049547;28;20198;-63
2021/11/23 05:40:16;;;;;;;7.70;5.50;;;14.00;99.90;;;;;;5051441;28;20229;-63
2021/11/23 05:42:42;;;;;;;8.30;5.17;;;14.10;99.90;;;;;;5051511;28;20199;-63
2021/11/23 05:45:11;;;;;;;9.97;5.30;;;14.10;99.90;;;;;;5050394;28;20190;-63
2021/11/23 05:47:38;;;;;;;9.33;5.63;;;14.20;99.90;;;;;;5050504;28;20311;-63
2021/11/23 05:50:06;;;;;;;9.80;5.63;;;14.30;99.90;;;;;;5048951;28;20264;-63
2021/11/23 05:52:33;;;;;;;11.80;6.37;;;14.40;99.90;;;;;;5052061;28;20227;-64
2021/11/23 05:54:59;;;;;;;7.83;5.93;;;14.50;99.90;;;;;;5052760;28;20213;-62
2021/11/23 05:57:25;;;;;;;11.13;5.17;;;14.60;99.90;;;;;;5044653;28;20286;-63
2021/11/23 05:59:51;;;;;;;11.97;6.03;;;14.70;99.90;;;;;;5052936;28;20206;-63
2021/11/23 06:02:18;;;;;;;15.33;5.60;;;14.80;99.90;;;;;;5050228;28;20237;-65
2021/11/23 06:04:44;;;;;;;10.33;5.93;;;14.90;99.90;;;;;;5050798;28;20252;-65
2021/11/23 06:07:10;;;;;;;8.67;5.77;;;15.00;99.90;;;;;;5032610;28;20212;-66
2021/11/23 06:09:36;;;;;;;8.33;6.00;;;15.10;99.90;;;;;;5040342;28;20187;-65
2021/11/23 06:12:04;;;;;;;10.50;6.20;;;15.20;99.90;;;;;;5051138;28;20251;-65
2021/11/23 06:14:30;;;;;;;11.23;5.93;;;15.40;99.90;;;;;;5048761;28;20199;-65
2021/11/23 06:16:57;;;;;;;8.87;6.10;;;15.50;99.90;;;;;;5050046;28;20289;-64
2021/11/23 06:19:23;;;;;;;11.03;6.53;;;15.70;99.90;;;;;;5051549;28;20192;-65
2021/11/23 06:21:50;;;;;;;9.73;5.67;;;15.70;99.90;;;;;;5049159;28;20190;-65
2021/11/23 06:24:16;;;;;;;7.63;5.60;;;15.70;99.90;;;;;;5057050;28;20187;-65
2021/11/23 06:26:42;;;;;;;9.47;5.77;;;15.80;99.90;;;;;;5058420;28;20223;-65
2021/11/23 06:29:09;;;;;;;7.73;6.10;;;15.90;99.90;;;;;;5049754;28;20654;-66
2021/11/23 06:31:35;;;;;;;13.83;6.20;;;16.10;99.90;;;;;;5059231;28;20187;-65
2021/11/23 06:34:07;;;;;;;12.40;5.47;;;16.20;99.90;;;;;;5049295;28;20633;-65
2021/11/23 06:36:34;;;;;;;9.10;5.60;;;16.40;99.90;;;;;;5053821;28;20187;-65
2021/11/23 06:39:03;;;;;;;9.40;5.57;;;16.50;99.90;;;;;;5047676;28;20187;-66
2021/11/23 06:41:29;;;;;;;10.57;5.77;;;16.60;99.90;;;;;;5047642;28;20264;-66
2021/11/23 06:43:55;;;;;;;6.57;5.10;;;16.70;99.90;;;;;;5050412;28;20199;-65
2021/11/23 06:46:22;;;;;;;9.60;5.30;;;16.90;99.90;;;;;;5048455;28;20191;-66
2021/11/23 06:48:48;;;;;;;8.67;5.13;;;17.00;99.90;;;;;;5048855;28;20184;-66
2021/11/23 06:51:15;;;;;;;8.13;5.57;;;16.90;99.90;;;;;;5050023;28;20599;-66
2021/11/23 06:53:41;;;;;;;8.83;5.40;;;17.00;99.90;;;;;;5047910;28;20183;-67
2021/11/23 06:56:07;;;;;;;6.83;5.00;;;17.00;99.90;;;;;;5048301;28;20193;-65
2021/11/23 06:58:34;;;;;;;7.43;4.70;;;17.10;99.90;;;;;;5047480;28;20264;-66
2021/11/23 07:01:00;;;;;;;8.17;5.07;;;17.20;99.90;;;;;;5049567;28;20183;-63
2021/11/23 07:03:26;;;;;;;6.30;5.03;;;17.30;99.90;;;;;;5051760;28;20204;-65
2021/11/23 07:05:52;;;;;;;7.70;4.47;;;17.40;99.90;;;;;;5049765;28;20218;-66
2021/11/23 07:08:18;;;;;;;9.20;4.77;;;17.50;99.90;;;;;;5039754;28;21009;-65
2021/11/23 07:10:45;;;;;;;7.57;4.47;;;17.60;99.90;;;;;;5048668;28;20188;-64
2021/11/23 07:13:12;;;;;;;6.73;4.60;;;17.60;99.90;;;;;;5049472;28;20770;-65
2021/11/23 07:15:38;;;;;;;8.20;4.87;;;17.60;99.90;;;;;;5047383;28;20647;-66
2021/11/23 07:18:04;;;;;;;5.23;4.30;;;17.60;99.90;;;;;;5048911;28;20229;-66
2021/11/23 07:20:31;;;;;;;6.40;4.23;;;17.70;99.90;;;;;;5058094;28;20285;-65
2021/11/23 07:22:57;;;;;;;6.33;4.23;;;17.80;99.90;;;;;;5047735;28;20215;-65
2021/11/23 07:25:24;;;;;;;8.20;4.60;;;17.80;99.90;;;;;;5044886;28;20190;-65
2021/11/23 07:27:50;;;;;;;6.93;4.40;;;17.80;99.90;;;;;;5051303;28;20587;-65
2021/11/23 07:30:17;;;;;;;6.07;4.20;;;17.80;99.90;;;;;;5050350;28;20253;-65
2021/11/23 07:32:43;;;;;;;10.10;4.70;;;17.80;99.90;;;;;;5052681;28;20201;-65
2021/11/23 07:35:10;;;;;;;7.40;4.17;;;17.70;99.90;;;;;;5064986;28;20187;-65
2021/11/23 07:37:40;;;;;;;5.80;4.60;;;17.70;99.90;;;;;;5046841;28;20233;-64
2021/11/23 07:40:10;;;;;;;8.27;4.27;;;17.80;99.90;;;;;;5049741;28;20214;-63
2021/11/23 07:42:37;;;;;;;7.47;4.30;;;17.90;99.90;;;;;;5046965;28;20203;-63
2021/11/23 07:45:05;;;;;;;9.20;4.30;;;17.90;99.90;;;;;;5047786;28;20190;-63
2021/11/23 07:47:31;;;;;;;5.63;4.03;;;18.00;99.90;;;;;;5046051;28;20211;-66
2021/11/23 07:49:57;;;;;;;6.13;4.30;;;18.00;99.90;;;;;;5060197;28;20193;-63
2021/11/23 07:52:24;;;;;;;5.27;3.70;;;18.00;99.90;;;;;;5073233;28;20717;-65
2021/11/23 07:54:50;;;;;;;5.43;4.10;;;18.00;99.90;;;;;;5059560;28;20237;-67
2021/11/23 07:57:16;;;;;;;7.30;3.93;;;18.00;99.90;;;;;;5051611;28;20211;-66
2021/11/23 07:59:43;;;;;;;6.30;3.77;;;18.00;99.90;;;;;;5034353;28;20244;-66
2021/11/23 08:02:10;;;;;;;8.73;4.40;;;18.00;99.90;;;;;;5064079;28;20183;-66
2021/11/23 08:04:36;;;;;;;6.23;3.87;;;18.00;99.90;;;;;;5057431;28;20282;-66
2021/11/23 08:07:02;;;;;;;6.13;3.50;;;18.10;99.90;;;;;;5044208;28;20241;-66
2021/11/23 08:09:29;;;;;;;7.30;3.97;;;18.20;99.90;;;;;;5060766;28;20185;-66
2021/11/23 08:11:55;;;;;;;9.90;4.00;;;18.30;99.90;;;;;;5053080;28;20222;-66
2021/11/23 08:14:24;;;;;;;5.40;4.00;;;18.40;99.90;;;;;;5063238;28;20183;-66
2021/11/23 08:16:50;;;;;;;6.97;3.60;;;18.40;99.90;;;;;;5065982;28;20194;-66
2021/11/23 08:19:17;;;;;;;5.40;3.70;;;18.50;99.90;;;;;;5056752;28;20205;-66
2021/11/23 08:21:43;;;;;;;6.10;3.60;;;18.60;99.90;;;;;;5059559;28;20643;-66
2021/11/23 08:24:10;;;;;;;5.53;3.53;;;18.60;99.90;;;;;;5060901;28;20290;-66
2021/11/23 08:26:36;;;;;;;4.53;3.60;;;18.60;99.90;;;;;;5061190;28;20191;-66
2021/11/23 08:29:03;;;;;;;5.20;4.00;;;18.60;99.90;;;;;;5062433;28;20869;-66
2021/11/23 08:31:29;;;;;;;5.87;3.47;;;18.70;99.90;;;;;;5059471;28;20194;-67
2021/11/23 08:33:58;;;;;;;4.40;3.20;;;18.70;99.90;;;;;;5063897;28;20203;-66
2021/11/23 08:36:24;;;;;;;4.87;3.07;;;18.80;99.90;;;;;;5065893;28;20179;-66
2021/11/23 08:38:51;;;;;;;5.30;3.33;;;18.80;99.90;;;;;;5070611;28;20191;-66
2021/11/23 08:41:17;;;;;;;5.47;3.23;;;18.90;99.90;;;;;;5068553;28;20265;-67
2021/11/23 08:43:43;;;;;;;6.07;3.23;;;18.90;99.90;;;;;;5067973;28;20578;-66
2021/11/23 08:46:10;;;;;;;5.33;3.33;;;19.00;99.90;;;;;;5059799;28;20205;-66
2021/11/23 08:48:37;;;;;;;5.20;3.00;;;19.00;99.90;;;;;;5067131;28;20235;-66
2021/11/23 08:51:06;;;;;;;6.83;3.50;;;19.00;99.90;;;;;;5067515;28;20187;-66
2021/11/23 08:53:33;;;;;;;5.40;3.43;;;19.10;99.90;;;;;;5061357;28;20196;-66
2021/11/23 08:55:59;;;;;;;5.70;3.20;;;19.20;99.90;;;;;;5057403;28;20194;-71
2021/11/23 08:58:25;;;;;;;4.67;3.20;;;19.20;99.90;;;;;;5058678;28;20911;-65
2021/11/23 09:00:52;;;;;;;4.17;3.10;;;19.20;99.90;;;;;;5057425;28;20191;-65
2021/11/23 09:03:18;;;;;;;3.90;3.07;;;19.40;99.90;;;;;;5061837;28;20282;-65
2021/11/23 09:05:45;;;;;;;5.20;3.50;;;19.40;99.90;;;;;;5065064;28;20260;-65
2021/11/23 09:08:11;;;;;;;3.87;2.97;;;19.40;99.90;;;;;;5057628;28;20219;-65
2021/11/23 09:10:40;;;;;;;4.17;3.20;;;19.50;99.90;;;;;;5066118;28;20215;-66
2021/11/23 09:13:07;;;;;;;5.27;3.40;;;19.50;99.90;;;;;;5066789;28;20222;-66
2021/11/23 09:15:35;;;;;;;4.27;2.70;;;19.60;99.90;;;;;;5071018;28;20231;-65
2021/11/23 09:18:03;;;;;;;5.33;3.33;;;19.70;99.90;;;;;;5054570;28;20187;-66
2021/11/23 09:20:36;;;;;;;4.97;2.90;;;19.70;99.90;;;;;;5060996;28;20203;-66
2021/11/23 09:23:13;;;;;;;7.23;3.30;;;19.70;99.90;;;;;;5063858;28;20214;-65
2021/11/23 09:25:41;;;;;;;5.53;3.20;;;19.80;99.90;;;;;;5053255;28;20198;-66
2021/11/23 09:28:09;;;;;;;4.97;3.20;;;19.80;99.90;;;;;;5065147;28;20226;-66
2021/11/23 09:30:37;;;;;;;5.60;3.00;;;19.80;99.90;;;;;;5063859;28;20399;-65
2021/11/23 09:33:06;;;;;;;3.47;2.70;;;19.80;99.90;;;;;;5045750;28;20558;-66
2021/11/23 09:35:33;;;;;;;4.53;2.70;;;19.80;99.90;;;;;;5066960;28;20187;-65
2021/11/23 09:38:00;;;;;;;4.27;2.93;;;19.80;99.90;;;;;;5056571;28;20195;-67
2021/11/23 09:40:29;;;;;;;4.50;2.87;;;19.90;99.90;;;;;;5061941;28;20306;-67
2021/11/23 09:42:56;;;;;;;7.07;3.00;;;20.10;99.90;;;;;;5062168;28;20198;-67
2021/11/23 09:45:23;;;;;;;3.67;2.23;;;20.30;99.90;;;;;;5059434;28;20286;-67
2021/11/23 09:47:50;;;;;;;6.03;2.90;;;20.30;99.90;;;;;;5066263;28;20671;-67
2021/11/23 09:50:17;;;;;;;3.73;2.70;;;20.30;99.90;;;;;;5059587;28;20191;-66
2021/11/23 09:52:44;;;;;;;4.37;2.97;;;20.30;99.90;;;;;;5067353;28;20660;-66
2021/11/23 09:55:14;;;;;;;5.30;2.80;;;20.30;99.90;;;;;;5062744;28;20182;-67
2021/11/23 09:57:41;;;;;;;5.00;3.30;;;20.30;99.90;;;;;;5063542;28;20206;-65
2021/11/23 10:00:35;;;;;;;4.00;3.33;;;20.30;99.90;;;;;;5059896;28;20234;-66
2021/11/23 10:03:27;;;;;;;5.33;2.90;;;20.50;99.90;;;;;;5061286;28;20278;-65
2021/11/23 10:06:13;;;;;;;3.57;2.80;;;20.70;99.90;;;;;;5046651;28;20226;-65
2021/11/23 10:08:43;;;;;;;3.47;2.90;;;20.80;99.90;;;;;;5056362;28;20218;-66
2021/11/23 10:11:12;;;;;;;4.73;3.03;;;20.90;99.90;;;;;;5052463;28;20194;-65
2021/11/23 10:13:56;;;;;;;4.27;2.80;;;20.70;99.90;;;;;;5063080;28;20221;-65
2021/11/23 10:16:25;;;;;;;4.60;2.90;;;20.70;99.90;;;;;;5057574;28;20236;-65
2021/11/23 10:18:53;;;;;;;4.90;3.03;;;20.90;99.90;;;;;;5059581;28;20531;-65
2021/11/23 10:21:25;;;;;;;4.03;2.93;;;21.80;99.90;;;;;;5061956;28;20198;-65
2021/11/23 10:23:55;;;;;;;5.23;2.73;;;22.80;99.90;;;;;;5049573;28;20604;-64
2021/11/23 10:26:32;;;;;;;6.37;3.20;;;22.00;99.90;;;;;;5052671;28;20191;-64
2021/11/23 10:29:06;;;;;;;4.40;3.00;;;21.50;99.90;;;;;;5058193;28;20186;-65
2021/11/23 10:31:47;;;;;;;4.30;3.10;;;21.10;99.90;;;;;;5052101;28;20199;-64
2021/11/23 10:34:18;;;;;;;8.53;3.83;;;20.80;99.90;;;;;;5058620;28;20190;-65
2021/11/23 10:36:49;;;;;;;5.47;2.93;;;20.50;99.90;;;;;;5046438;28;20191;-65
2021/11/23 10:39:26;;;;;;;4.13;3.57;;;20.30;99.90;;;;;;5059863;28;20546;-65
2021/11/23 10:41:59;;;;;;;5.00;3.30;;;20.20;99.90;;;;;;5056076;28;20186;-64
2021/11/23 10:44:35;;;;;;;7.43;4.07;;;20.10;99.90;;;;;;5055888;28;20183;-65
2021/11/23 10:47:06;;;;;;;11.40;5.23;;;20.10;99.90;;;;;;5059801;28;20230;-65
2021/11/23 10:49:51;;;;;;;9.03;5.53;;;20.10;99.90;;;;;;5054823;28;20195;-64
2021/11/23 10:52:29;;;;;;;8.20;5.10;;;20.00;99.90;;;;;;5056406;28;20600;-65
2021/11/23 10:54:56;;;;;;;9.73;5.37;;;19.90;99.90;;;;;;5052459;28;20247;-65
2021/11/23 10:57:24;;;;;;;10.43;5.20;;;19.80;99.90;;;;;;5051401;28;20278;-65
2021/11/23 10:59:52;;;;;;;7.93;5.27;;;19.70;99.90;;;;;;5055469;28;20182;-65
2021/11/23 11:02:18;;;;;;;9.07;5.63;;;19.70;99.90;;;;;;5057407;28;20191;-65
2021/11/23 11:04:52;;;;;;;10.80;5.17;;;19.60;99.90;;;;;;5055765;28;20191;-64
2021/11/23 11:07:21;;;;;;;8.30;5.00;;;19.60;99.90;;;;;;5059800;28;20210;-65
2021/11/23 11:09:50;;;;;;;11.23;4.93;;;19.60;99.90;;;;;;5061790;28;20246;-64
2021/11/23 11:12:17;;;;;;;8.23;4.77;;;19.60;99.90;;;;;;5052242;28;20976;-64
2021/11/23 11:14:51;;;;;;;11.80;4.93;;;19.50;99.90;;;;;;5057094;28;20230;-65
2021/11/23 11:17:18;;;;;;;10.73;4.90;;;19.50;99.90;;;;;;5056043;28;20183;-65
2021/11/23 11:19:48;;;;;;;19.97;5.27;;;19.40;99.90;;;;;;5062568;28;20383;-65
2021/11/23 11:22:29;;;;;;;29.07;5.67;;;19.60;99.90;;;;;;5058743;28;20203;-65
2021/11/23 11:27:37;;;;;;;7.20;4.03;;;19.90;99.90;;;;;;5049600;28;20215;-65
2021/11/23 11:30:36;;;;;;;8.50;4.97;;;20.20;99.90;;;;;;5046400;28;20184;-64
2021/11/23 11:33:09;;;;;;;9.30;4.67;;;20.30;99.90;;;;;;5048740;28;20519;-65
2021/11/23 11:35:49;;;;;;;7.10;4.77;;;20.40;99.90;;;;;;5057537;28;20194;-65
2021/11/23 11:38:28;;;;;;;9.90;5.13;;;20.40;99.90;;;;;;5051380;28;20198;-66
2021/11/23 11:41:03;;;;;;;6.63;4.27;;;20.30;99.90;;;;;;5050660;28;20760;-65
2021/11/23 11:43:34;;;;;;;12.93;4.80;;;20.20;99.90;;;;;;5053302;28;20640;-66
2021/11/23 11:46:04;;;;;;;8.27;4.60;;;20.00;99.90;;;;;;5057049;28;20930;-66
2021/11/23 11:48:34;;;;;;;5.63;3.97;;;19.90;99.90;;;;;;5056957;28;20214;-65
2021/11/23 11:51:10;;;;;;;7.67;4.37;;;19.90;99.90;;;;;;5066069;28;20261;-65
2021/11/23 11:54:16;;;;;;;6.47;4.97;;;19.80;99.90;;;;;;5064375;28;20198;-65
2021/11/23 11:56:46;;;;;;;9.83;4.40;;;19.70;99.90;;;;;;5053779;28;20175;-65
2021/11/23 11:59:26;;;;;;;6.73;4.10;;;19.70;99.90;;;;;;5060427;28;20211;-65
2021/11/23 12:02:03;;;;;;;7.57;4.53;;;19.70;99.90;;;;;;5055635;28;20187;-65
2021/11/23 12:04:35;;;;;;;9.63;5.03;;;19.60;99.90;;;;;;5048359;28;20234;-65
2021/11/23 12:07:11;;;;;;;7.73;4.27;;;19.60;99.90;;;;;;5050742;28;20213;-65
2021/11/23 12:09:54;;;;;;;8.70;4.10;;;19.50;99.90;;;;;;5063389;28;20198;-65
2021/11/23 12:12:58;;;;;;;8.47;4.60;;;19.50;99.90;;;;;;5060942;28;20187;-65
2021/11/23 12:15:50;;;;;;;8.87;4.37;;;19.40;99.90;;;;;;5062426;28;20191;-65
2021/11/23 12:18:52;;;;;;;8.27;4.20;;;19.40;99.90;;;;;;5058139;28;20183;-64
2021/11/23 12:21:21;;;;;;;6.83;4.30;;;19.40;99.90;;;;;;5057314;28;20563;-65
2021/11/23 12:24:05;;;;;;;11.70;4.80;;;19.50;99.90;;;;;;5059660;28;20218;-65
2021/11/23 12:26:37;;;;;;;7.90;4.80;;;19.50;99.90;;;;;;5063256;28;20195;-65
2021/11/23 12:29:12;;;;;;;6.00;4.17;;;19.50;99.90;;;;;;5058910;28;20187;-65
2021/11/23 12:31:52;;;;;;;8.40;4.23;;;19.50;99.90;;;;;;5057817;28;20273;-65
2021/11/23 12:34:19;;;;;;;7.27;4.30;;;19.50;99.90;;;;;;5059342;28;20191;-65
2021/11/23 12:36:52;;;;;;;9.43;4.50;;;19.40;99.90;;;;;;5058514;28;20202;-65
2021/11/23 12:39:37;;;;;;;7.67;4.30;;;19.40;99.90;;;;;;5058928;28;22113;-65
2021/11/23 12:42:12;;;;;;;11.80;4.70;;;19.40;99.90;;;;;;5062668;28;20191;-65
2021/11/23 12:44:43;;;;;;;8.47;4.67;;;19.30;99.90;;;;;;5053046;28;20187;-65
2021/11/23 12:47:19;;;;;;;10.00;4.60;;;19.30;99.90;;;;;;5050856;28;20298;-65
2021/11/23 12:50:01;;;;;;;4.97;4.27;;;19.30;99.90;;;;;;5054621;28;20222;-65
2021/11/23 12:52:30;;;;;;;12.70;4.73;;;19.20;99.90;;;;;;5058220;28;20513;-65
2021/11/23 12:54:57;;;;;;;11.63;5.03;;;19.20;99.90;;;;;;5062643;28;20198;-64